createdAt,value
2023-01-23T00:01:05.332Z,19.48
2023-01-23T00:03:33.257Z,17.08
2023-01-23T00:06:09.049Z,16.63
2023-01-23T00:08:36.544Z,17.48
2023-01-23T00:11:21.135Z,17.55
2023-01-23T00:13:47.727Z,18.02
2023-01-23T00:16:17.592Z,16.65
2023-01-23T00:18:44.708Z,16.15
2023-01-23T00:21:13.968Z,13.70
2023-01-23T00:23:49.450Z,15.75
2023-01-23T00:26:20.339Z,13.48
2023-01-23T00:28:47.408Z,16.05
2023-01-23T00:31:26.527Z,15.75
2023-01-23T00:33:55.474Z,16.92
2023-01-23T00:36:22.535Z,13.25
2023-01-23T00:38:49.112Z,11.88
2023-01-23T00:41:15.759Z,14.45
2023-01-23T00:43:42.477Z,15.27
2023-01-23T00:46:09.172Z,15.82
2023-01-23T00:48:35.857Z,13.57
2023-01-23T00:51:02.459Z,12.82
2023-01-23T00:53:29.131Z,14.27
2023-01-23T00:55:55.995Z,13.52
2023-01-23T00:58:22.623Z,13.05
2023-01-23T01:00:49.509Z,17.13
2023-01-23T01:03:16.279Z,12.55
2023-01-23T01:05:42.869Z,13.15
2023-01-23T01:08:09.837Z,13.15
2023-01-23T01:10:36.439Z,14.52
2023-01-23T01:13:03.634Z,13.18
2023-01-23T01:15:30.517Z,16.30
2023-01-23T01:17:58.346Z,15.88
2023-01-23T01:20:27.082Z,13.55
2023-01-23T01:22:55.367Z,13.05
2023-01-23T01:25:22.502Z,11.25
2023-01-23T01:27:49.193Z,16.00
2023-01-23T01:30:17.920Z,14.43
2023-01-23T01:32:45.086Z,14.65
2023-01-23T01:35:12.064Z,13.45
2023-01-23T01:37:40.183Z,13.65
2023-01-23T01:40:08.849Z,12.95
2023-01-23T01:42:40.286Z,13.60
2023-01-23T01:45:27.386Z,14.32
2023-01-23T01:47:54.056Z,14.63
2023-01-23T01:50:20.942Z,10.55
2023-01-23T01:52:47.672Z,14.73
2023-01-23T01:55:15.266Z,11.82
2023-01-23T01:57:45.223Z,13.27
2023-01-23T02:00:16.821Z,12.32
2023-01-23T02:03:03.913Z,11.40
2023-01-23T02:05:37.987Z,12.27
2023-01-23T02:08:44.527Z,14.15
2023-01-23T02:11:11.770Z,12.70
2023-01-23T02:13:39.822Z,13.20
2023-01-23T02:16:18.509Z,13.43
2023-01-23T02:18:49.010Z,13.00
2023-01-23T02:21:20.017Z,12.18
2023-01-23T02:24:11.834Z,11.95
2023-01-23T02:26:42.094Z,12.25
2023-01-23T02:29:09.177Z,13.40
2023-01-23T02:31:37.340Z,12.52
2023-01-23T02:34:04.878Z,13.85
2023-01-23T02:36:34.484Z,12.27
2023-01-23T02:39:19.042Z,13.43
2023-01-23T02:41:50.635Z,13.60
2023-01-23T02:44:27.361Z,13.80
2023-01-23T02:46:55.446Z,12.35
2023-01-23T02:49:22.598Z,12.95
2023-01-23T02:51:50.565Z,15.25
2023-01-23T02:54:17.228Z,14.00
2023-01-23T02:56:44.160Z,13.30
2023-01-23T02:59:29.452Z,15.77
2023-01-23T03:01:56.451Z,12.75
2023-01-23T03:04:24.643Z,13.57
2023-01-23T03:06:51.295Z,12.43
2023-01-23T03:09:18.754Z,12.25
2023-01-23T03:11:47.199Z,11.88
2023-01-23T03:14:20.432Z,13.60
2023-01-23T03:16:51.267Z,14.25
2023-01-23T03:19:25.341Z,12.48
2023-01-23T03:21:52.800Z,11.43
2023-01-23T03:24:20.511Z,13.10
2023-01-23T03:26:48.925Z,14.63
2023-01-23T03:29:39.999Z,12.70
2023-01-23T03:32:07.138Z,12.27
2023-01-23T03:34:34.462Z,12.45
2023-01-23T03:37:01.622Z,12.90
2023-01-23T03:39:46.971Z,14.32
2023-01-23T03:42:13.661Z,14.40
2023-01-23T03:44:40.788Z,12.70
2023-01-23T03:47:07.494Z,16.23
2023-01-23T03:49:34.144Z,16.35
2023-01-23T03:52:01.466Z,12.77
2023-01-23T03:54:28.314Z,13.93
2023-01-23T03:56:55.032Z,15.73
2023-01-23T03:59:21.638Z,14.65
2023-01-23T04:01:48.882Z,12.55
2023-01-23T04:04:15.607Z,15.77
2023-01-23T04:06:42.200Z,13.85
2023-01-23T04:09:08.791Z,15.98
2023-01-23T04:11:35.364Z,13.93
2023-01-23T04:14:01.935Z,13.57
2023-01-23T04:16:28.710Z,15.60
2023-01-23T04:18:55.521Z,14.60
2023-01-23T04:21:22.090Z,14.15
2023-01-23T04:23:48.690Z,15.50
2023-01-23T04:26:15.627Z,15.88
2023-01-23T04:28:42.220Z,13.95
2023-01-23T04:31:09.483Z,18.63
2023-01-23T04:33:36.296Z,15.65
2023-01-23T04:36:05.600Z,18.33
2023-01-23T04:38:33.598Z,18.70
2023-01-23T04:41:00.282Z,19.30
2023-01-23T04:43:27.077Z,15.40
2023-01-23T04:45:54.773Z,14.63
2023-01-23T04:48:22.157Z,18.13
2023-01-23T04:50:49.631Z,16.73
2023-01-23T04:53:16.779Z,17.25
2023-01-23T04:55:43.574Z,18.40
2023-01-23T04:58:11.337Z,19.00
2023-01-23T05:00:38.352Z,16.30
2023-01-23T05:03:05.874Z,16.77
2023-01-23T05:05:33.363Z,15.45
2023-01-23T05:08:00.023Z,19.10
2023-01-23T05:10:26.971Z,13.73
2023-01-23T05:12:53.534Z,17.58
2023-01-23T05:15:21.142Z,15.90
2023-01-23T05:17:48.725Z,19.23
2023-01-23T05:20:15.822Z,17.98
2023-01-23T05:22:52.135Z,19.70
2023-01-23T05:25:20.984Z,14.90
2023-01-23T05:27:47.695Z,18.45
2023-01-23T05:30:14.641Z,18.40
2023-01-23T05:32:41.312Z,18.40
2023-01-23T05:35:08.648Z,22.08
2023-01-23T05:37:35.338Z,17.45
2023-01-23T05:40:03.112Z,16.33
2023-01-23T05:42:29.820Z,16.48
2023-01-23T05:44:56.435Z,16.55
2023-01-23T05:47:22.970Z,17.05
2023-01-23T05:49:49.530Z,20.17
2023-01-23T05:52:16.088Z,18.45
2023-01-23T05:54:42.649Z,17.95
2023-01-23T05:57:09.443Z,20.95
2023-01-23T05:59:36.002Z,17.80
2023-01-23T06:02:02.551Z,17.17
2023-01-23T06:04:29.184Z,19.52
2023-01-23T06:06:55.744Z,17.55
2023-01-23T06:09:22.401Z,20.38
2023-01-23T06:11:48.972Z,18.02
2023-01-23T06:14:15.581Z,16.63
2023-01-23T06:16:42.244Z,17.98
2023-01-23T06:19:10.022Z,18.38
2023-01-23T06:21:37.022Z,20.70
2023-01-23T06:24:03.910Z,16.90
2023-01-23T06:26:30.464Z,21.15
2023-01-23T06:28:57.086Z,16.27
2023-01-23T06:31:23.905Z,17.38
2023-01-23T06:33:51.488Z,18.50
2023-01-23T06:36:18.121Z,19.52
2023-01-23T06:38:44.771Z,19.38
2023-01-23T06:41:11.351Z,17.88
2023-01-23T06:43:38.171Z,21.40
2023-01-23T06:46:07.231Z,20.95
2023-01-23T06:48:33.856Z,20.95
2023-01-23T06:51:01.278Z,22.25
2023-01-23T06:53:28.187Z,22.67
2023-01-23T06:55:58.840Z,19.85
2023-01-23T06:58:25.515Z,23.10
2023-01-23T07:00:52.140Z,20.98
2023-01-23T07:03:18.761Z,20.23
2023-01-23T07:05:45.339Z,18.92
2023-01-23T07:08:12.563Z,19.73
2023-01-23T07:10:39.636Z,19.17
2023-01-23T07:13:07.822Z,16.67
2023-01-23T07:15:35.006Z,18.15
2023-01-23T07:18:02.072Z,21.00
2023-01-23T07:20:29.294Z,17.25
2023-01-23T07:22:57.425Z,18.40
2023-01-23T07:25:25.403Z,19.42
2023-01-23T07:27:52.005Z,15.43
2023-01-23T07:30:19.377Z,18.13
2023-01-23T07:32:46.145Z,15.73
2023-01-23T07:35:12.756Z,19.35
2023-01-23T07:37:39.388Z,17.58
2023-01-23T07:40:06.333Z,19.77
2023-01-23T07:42:33.212Z,19.60
2023-01-23T07:44:59.788Z,19.45
2023-01-23T07:47:26.383Z,16.42
2023-01-23T07:49:52.994Z,18.38
2023-01-23T07:52:19.590Z,19.85
2023-01-23T07:54:46.251Z,16.40
2023-01-23T07:57:12.817Z,19.35
2023-01-23T07:59:39.542Z,20.40
2023-01-23T08:02:06.286Z,21.88
2023-01-23T08:04:32.869Z,22.05
2023-01-23T08:06:59.491Z,18.88
2023-01-23T08:09:26.050Z,19.23
2023-01-23T08:11:53.041Z,18.85
2023-01-23T08:14:20.423Z,20.13
2023-01-23T08:16:53.098Z,19.42
2023-01-23T08:19:20.292Z,20.30
2023-01-23T08:21:47.201Z,20.10
2023-01-23T08:24:14.475Z,18.05
2023-01-23T08:26:42.562Z,18.70
2023-01-23T08:29:10.887Z,19.17
2023-01-23T08:31:38.190Z,16.95
2023-01-23T08:34:05.403Z,18.00
2023-01-23T08:36:32.407Z,19.33
2023-01-23T08:38:59.998Z,18.45
2023-01-23T08:41:26.782Z,18.55
2023-01-23T08:43:53.375Z,18.17
2023-01-23T08:46:20.079Z,20.20
2023-01-23T08:48:46.754Z,20.83
2023-01-23T08:51:14.130Z,19.45
2023-01-23T08:53:41.802Z,19.13
2023-01-23T08:56:16.799Z,20.42
2023-01-23T08:58:44.627Z,21.67
2023-01-23T09:01:17.207Z,21.90
2023-01-23T09:03:43.931Z,21.80
2023-01-23T09:06:12.204Z,24.63
2023-01-23T09:08:38.969Z,24.90
2023-01-23T09:11:07.370Z,25.83
2023-01-23T09:13:34.219Z,21.80
2023-01-23T09:16:01.293Z,22.45
2023-01-23T09:18:28.438Z,22.00
2023-01-23T09:20:55.328Z,19.55
2023-01-23T09:23:22.591Z,19.02
2023-01-23T09:25:49.392Z,26.20
2023-01-23T09:28:15.929Z,23.30
2023-01-23T09:30:42.609Z,24.00
2023-01-23T09:33:09.313Z,25.40
2023-01-23T09:35:35.911Z,23.00
2023-01-23T09:38:06.975Z,26.05
2023-01-23T09:40:53.344Z,24.98
2023-01-23T09:43:37.989Z,22.45
2023-01-23T09:46:10.844Z,20.88
2023-01-23T09:49:08.077Z,23.23
2023-01-23T09:51:37.404Z,22.23
2023-01-23T09:54:43.066Z,22.75
2023-01-23T09:57:18.834Z,19.90
2023-01-23T10:00:00.534Z,21.65
2023-01-23T10:02:27.966Z,21.40
2023-01-23T10:04:56.415Z,21.00
2023-01-23T10:07:37.758Z,23.20
2023-01-23T10:10:27.341Z,22.00
2023-01-23T10:13:07.745Z,22.45
2023-01-23T10:15:46.345Z,20.58
2023-01-23T10:18:15.773Z,24.10
2023-01-23T10:21:14.170Z,24.48
2023-01-23T10:23:41.030Z,22.52
2023-01-23T10:26:31.643Z,22.00
2023-01-23T10:29:09.962Z,21.92
2023-01-23T10:31:53.823Z,21.10
2023-01-23T10:34:24.942Z,23.25
2023-01-23T10:36:57.051Z,22.20
2023-01-23T10:39:31.369Z,24.10
2023-01-23T10:42:02.560Z,21.70
2023-01-23T10:44:29.523Z,24.52
2023-01-23T10:47:03.666Z,23.42
2023-01-23T10:49:39.629Z,22.10
2023-01-23T10:52:32.607Z,26.27
2023-01-23T10:54:59.306Z,22.00
2023-01-23T10:57:28.418Z,21.85
2023-01-23T11:00:07.836Z,19.13
2023-01-23T11:02:40.655Z,25.23
2023-01-23T11:05:50.634Z,24.10
2023-01-23T11:08:27.581Z,22.48
2023-01-23T11:11:11.225Z,22.58
2023-01-23T11:13:37.833Z,24.20
2023-01-23T11:16:04.698Z,22.05
2023-01-23T11:18:42.523Z,20.88
2023-01-23T11:21:26.576Z,23.80
2023-01-23T11:24:30.682Z,25.80
2023-01-23T11:27:14.736Z,25.10
2023-01-23T11:29:50.387Z,24.02
2023-01-23T11:32:17.409Z,20.30
2023-01-23T11:34:49.601Z,23.08
2023-01-23T11:37:30.349Z,20.10
2023-01-23T11:40:07.142Z,21.35
2023-01-23T11:42:39.192Z,23.83
2023-01-23T11:45:13.415Z,22.60
2023-01-23T11:47:46.002Z,24.05
2023-01-23T11:50:49.986Z,21.27
2023-01-23T11:53:45.639Z,22.55
2023-01-23T11:56:47.500Z,23.02
2023-01-23T11:59:29.294Z,26.43
2023-01-23T12:02:04.872Z,20.95
2023-01-23T12:04:40.365Z,24.60
2023-01-23T12:07:12.860Z,23.10
2023-01-23T12:09:54.775Z,20.85
2023-01-23T12:12:29.502Z,22.17
2023-01-23T12:14:56.042Z,21.17
2023-01-23T12:17:30.973Z,21.52
2023-01-23T12:20:19.897Z,22.52
2023-01-23T12:23:01.375Z,23.02
2023-01-23T12:25:38.830Z,22.15
2023-01-23T12:28:29.992Z,23.38
2023-01-23T12:31:18.158Z,21.77
2023-01-23T12:34:22.288Z,23.70
2023-01-23T12:37:29.626Z,20.65
2023-01-23T12:40:11.771Z,23.27
2023-01-23T12:42:51.539Z,21.77
2023-01-23T12:45:23.303Z,22.92
2023-01-23T12:48:02.033Z,22.27
2023-01-23T12:50:47.224Z,22.48
2023-01-23T12:53:17.239Z,24.48
2023-01-23T12:56:07.747Z,23.70
2023-01-23T12:58:37.866Z,26.35
2023-01-23T13:01:10.586Z,22.48
2023-01-23T13:03:51.776Z,21.95
2023-01-23T13:06:46.403Z,22.30
2023-01-23T13:09:41.324Z,21.65
2023-01-23T13:12:27.579Z,21.83
2023-01-23T13:15:19.018Z,20.30
2023-01-23T13:17:57.996Z,21.40
2023-01-23T13:20:53.378Z,22.52
2023-01-23T13:23:33.430Z,21.80
2023-01-23T13:26:16.691Z,21.33
2023-01-23T13:28:45.890Z,20.83
2023-01-23T13:31:42.089Z,22.10
2023-01-23T13:34:17.820Z,19.25
2023-01-23T13:36:46.194Z,20.20
2023-01-23T13:39:38.131Z,19.42
2023-01-23T13:42:30.657Z,17.92
2023-01-23T13:45:16.203Z,19.98
2023-01-23T14:22:10.699Z,20.83
2023-01-23T14:24:53.032Z,19.23
2023-01-23T14:27:52.083Z,22.58
2023-01-23T14:30:26.971Z,18.77
2023-01-23T14:32:54.313Z,18.48
2023-01-23T14:35:30.717Z,17.88
2023-01-23T14:38:00.666Z,22.20
2023-01-23T14:40:33.220Z,21.70
2023-01-23T14:43:19.885Z,23.23
2023-01-23T14:45:49.413Z,21.80
2023-01-23T14:48:17.917Z,22.17
2023-01-23T14:50:44.762Z,21.05
2023-01-23T14:53:16.166Z,19.08
2023-01-23T14:55:47.324Z,24.02
2023-01-23T14:58:20.788Z,23.30
2023-01-23T15:00:49.059Z,24.17
2023-01-23T15:03:54.479Z,22.35
2023-01-23T15:06:22.552Z,18.30
2023-01-23T15:08:50.274Z,23.88
2023-01-23T15:11:24.688Z,20.88
2023-01-23T15:13:55.171Z,23.02
2023-01-23T15:16:24.751Z,22.52
2023-01-23T15:19:20.029Z,21.40
2023-01-23T15:21:47.151Z,22.48
2023-01-23T15:24:13.794Z,23.27
2023-01-23T15:26:55.645Z,22.75
2023-01-23T15:29:22.415Z,20.92
2023-01-23T15:31:54.581Z,17.27
2023-01-23T15:37:19.461Z,20.48
2023-01-23T15:39:56.359Z,19.55
2023-01-23T15:42:31.685Z,19.00
2023-01-23T15:45:01.762Z,21.20
2023-01-23T15:47:32.611Z,23.60
2023-01-23T15:50:02.896Z,19.55
2023-01-23T15:52:45.108Z,19.58
2023-01-23T15:55:12.376Z,19.15
2023-01-23T15:57:39.149Z,19.58
2023-01-23T16:00:21.060Z,21.33
2023-01-23T16:02:56.131Z,17.23
2023-01-23T16:05:25.999Z,20.75
2023-01-23T16:07:53.455Z,20.38
2023-01-23T16:10:25.873Z,20.48
2023-01-23T16:12:54.548Z,19.88
2023-01-23T16:15:30.489Z,22.90
2023-01-23T16:17:57.459Z,19.75
2023-01-23T16:20:30.284Z,22.00
2023-01-23T16:23:14.147Z,17.98
2023-01-23T16:25:45.014Z,18.35
2023-01-23T16:28:20.318Z,19.20
2023-01-23T16:30:47.652Z,22.27
2023-01-23T16:33:14.810Z,23.23
2023-01-23T16:35:42.122Z,22.70
2023-01-23T16:38:19.972Z,21.90
2023-01-23T16:40:46.831Z,22.20
2023-01-23T16:43:13.395Z,19.27
2023-01-23T16:45:40.028Z,21.60
2023-01-23T16:48:09.195Z,22.75
2023-01-23T16:50:42.481Z,18.25
2023-01-23T16:53:37.274Z,21.02
2023-01-23T16:56:05.116Z,17.98
2023-01-23T16:58:39.063Z,21.17
2023-01-23T17:01:13.451Z,20.10
2023-01-23T17:03:41.249Z,22.63
2023-01-23T17:06:16.885Z,23.38
2023-01-23T17:08:43.925Z,19.45
2023-01-23T17:11:19.712Z,21.65
2023-01-23T17:13:46.822Z,18.65
2023-01-23T17:16:26.522Z,23.50
2023-01-23T17:18:54.986Z,24.60
2023-01-23T17:21:24.863Z,28.38
2023-01-23T17:23:51.972Z,31.10
2023-01-23T17:26:20.742Z,26.30
2023-01-23T17:28:47.422Z,27.05
2023-01-23T17:31:24.535Z,22.63
2023-01-23T17:33:55.656Z,23.30
2023-01-23T17:36:22.335Z,21.45
2023-01-23T17:38:49.656Z,20.02
2023-01-23T17:41:17.274Z,21.08
2023-01-23T17:43:44.709Z,22.48
2023-01-23T17:46:32.836Z,19.60
2023-01-23T17:49:00.095Z,23.48
2023-01-23T17:51:26.930Z,26.27
2023-01-23T17:53:53.687Z,25.23
2023-01-23T17:56:20.239Z,21.67
2023-01-23T17:58:46.809Z,24.08
2023-01-23T18:01:22.355Z,25.05
2023-01-23T18:03:52.821Z,22.27
2023-01-23T18:06:19.750Z,22.02
2023-01-23T18:08:46.514Z,20.77
2023-01-23T18:11:19.634Z,24.02
2023-01-23T18:14:09.635Z,19.85
2023-01-23T18:16:42.311Z,22.90
2023-01-23T18:19:15.030Z,22.80
2023-01-23T18:21:42.022Z,22.80
2023-01-23T18:24:27.318Z,20.88
2023-01-23T18:27:21.554Z,20.40
2023-01-23T18:30:26.354Z,21.85
2023-01-23T18:33:18.954Z,21.20
2023-01-23T18:38:55.500Z,21.83
2023-01-23T18:41:27.162Z,20.65
2023-01-23T18:44:06.465Z,18.60
2023-01-23T18:46:33.695Z,19.75
2023-01-23T18:49:00.791Z,23.73
2023-01-23T18:51:42.295Z,20.65
2023-01-23T18:54:27.551Z,19.47
2023-01-23T18:57:10.323Z,19.67
2023-01-23T18:59:55.687Z,23.17
2023-01-23T19:02:29.542Z,23.38
2023-01-23T19:05:13.654Z,22.63
2023-01-23T19:07:40.524Z,20.83
2023-01-23T19:10:13.391Z,20.55
2023-01-23T19:13:04.619Z,21.80
2023-01-23T19:15:37.389Z,24.05
2023-01-23T19:18:14.136Z,26.13
2023-01-23T19:20:55.530Z,27.60
2023-01-23T19:23:41.363Z,25.85
2023-01-23T19:26:13.596Z,26.10
2023-01-23T19:31:16.688Z,26.48
2023-01-23T19:33:43.410Z,24.38
2023-01-23T19:36:12.690Z,28.05
2023-01-23T19:38:39.583Z,26.73
2023-01-23T19:41:19.341Z,27.88
2023-01-23T19:43:51.280Z,23.05
2023-01-23T19:46:19.404Z,24.42
2023-01-23T19:48:46.377Z,27.48
2023-01-23T19:51:19.377Z,26.35
2023-01-23T19:53:46.645Z,22.40
2023-01-23T19:56:15.782Z,27.55
2023-01-23T19:58:42.800Z,26.02
2023-01-23T20:01:31.141Z,26.92
2023-01-23T20:03:57.787Z,22.40
2023-01-23T20:06:24.352Z,24.55
2023-01-23T20:08:50.993Z,25.50
2023-01-23T20:11:17.767Z,24.38
2023-01-23T20:13:45.235Z,24.50
2023-01-23T20:16:18.396Z,19.15
2023-01-23T20:18:48.853Z,25.58
2023-01-23T20:21:18.014Z,22.92
2023-01-23T20:23:45.820Z,24.65
2023-01-23T20:26:13.172Z,22.05
2023-01-23T20:28:39.934Z,23.58
2023-01-23T20:31:13.579Z,23.08
2023-01-23T20:33:40.506Z,22.38
2023-01-23T20:36:08.395Z,22.70
2023-01-23T20:38:34.976Z,22.65
2023-01-23T20:41:07.177Z,23.13
2023-01-23T20:46:00.777Z,21.13
2023-01-23T20:48:27.387Z,20.45
2023-01-23T20:50:57.250Z,24.77
2023-01-23T20:53:30.495Z,24.42
2023-01-23T20:56:03.586Z,23.60
2023-01-23T20:58:50.264Z,23.95
2023-01-23T21:01:18.829Z,24.02
2023-01-23T21:03:48.053Z,24.90
2023-01-23T21:06:15.543Z,25.17
2023-01-23T21:08:42.822Z,23.35
2023-01-23T21:11:10.894Z,23.55
2023-01-23T21:13:37.928Z,27.45
2023-01-23T21:16:12.049Z,25.35
2023-01-23T21:18:44.628Z,23.35
2023-01-23T21:21:13.995Z,23.98
2023-01-23T21:23:41.268Z,27.20
2023-01-23T21:26:08.347Z,21.58
2023-01-23T21:28:36.375Z,23.80
2023-01-23T21:31:21.869Z,27.27
2023-01-23T21:33:49.000Z,25.65
2023-01-23T21:36:19.648Z,24.65
2023-01-23T21:38:46.833Z,26.35
2023-01-23T21:41:14.086Z,26.17
2023-01-23T21:43:40.805Z,23.58
2023-01-23T21:46:07.506Z,25.30
2023-01-23T21:48:35.091Z,22.42
2023-01-23T21:51:09.939Z,27.02
2023-01-23T21:53:38.159Z,25.10
2023-01-23T21:56:05.799Z,25.40
2023-01-23T21:58:32.934Z,25.38
2023-01-23T22:01:19.874Z,25.98
2023-01-23T22:03:46.552Z,24.65
2023-01-23T22:06:13.459Z,24.27
2023-01-23T22:08:40.878Z,26.75
2023-01-23T22:11:09.197Z,25.48
2023-01-23T22:13:35.987Z,23.45
2023-01-23T22:16:03.277Z,23.83
2023-01-23T22:18:30.168Z,26.88
2023-01-23T22:20:58.913Z,25.55
2023-01-23T22:23:26.417Z,26.52
2023-01-23T22:25:57.654Z,23.50
2023-01-23T22:28:24.371Z,26.10
2023-01-23T22:30:50.961Z,23.63
2023-01-23T22:33:18.132Z,23.25
2023-01-23T22:35:44.775Z,25.90
2023-01-23T22:38:13.702Z,23.40
2023-01-23T22:40:40.914Z,23.33
2023-01-23T22:43:08.684Z,25.73
2023-01-23T22:45:35.478Z,24.10
2023-01-23T22:48:02.039Z,24.15
2023-01-23T22:50:29.653Z,23.58
2023-01-23T22:52:56.201Z,20.20
2023-01-23T22:55:23.368Z,22.33
2023-01-23T22:57:53.143Z,21.55
2023-01-23T23:00:20.597Z,18.80
2023-01-23T23:02:47.243Z,21.38
2023-01-23T23:05:13.999Z,20.30
2023-01-23T23:07:40.659Z,27.15
2023-01-23T23:10:09.590Z,25.60
2023-01-23T23:12:36.173Z,23.73
2023-01-23T23:15:03.161Z,26.25
2023-01-23T23:17:30.176Z,25.92
2023-01-23T23:19:56.831Z,23.65
2023-01-23T23:22:23.435Z,22.83
2023-01-23T23:24:50.109Z,23.42
2023-01-23T23:27:16.787Z,22.80
2023-01-23T23:29:43.394Z,22.20
2023-01-23T23:32:10.031Z,20.92
2023-01-23T23:34:37.440Z,21.67
2023-01-23T23:37:04.212Z,22.48
2023-01-23T23:39:30.841Z,21.75
2023-01-23T23:41:58.557Z,21.83
2023-01-23T23:44:25.284Z,20.80
2023-01-23T23:46:51.917Z,25.98
2023-01-23T23:49:18.509Z,23.40
2023-01-23T23:51:45.109Z,22.60
2023-01-23T23:54:11.801Z,21.27
2023-01-23T23:56:38.370Z,21.83
2023-01-23T23:59:05.010Z,21.13
